sensor_id;sensor_type;location;lat;lon;timestamp;temperature;humidity
17998;DHT22;9124;48.144;17.098;2022-10-16T00:01:48;13.50;99.90
17998;DHT22;9124;48.144;17.098;2022-10-16T00:05:24;13.40;99.90
17998;DHT22;9124;48.144;17.098;2022-10-16T00:09:01;13.30;99.90
17998;DHT22;9124;48.144;17.098;2022-10-16T00:12:37;13.20;99.90
17998;DHT22;9124;48.144;17.098;2022-10-16T00:16:14;13.10;99.90
17998;DHT22;9124;48.144;17.098;2022-10-16T00:19:50;13.10;99.90
17998;DHT22;9124;48.144;17.098;2022-10-16T00:23:27;13.10;99.90
17998;DHT22;9124;48.144;17.098;2022-10-16T00:27:03;13.00;99.90
17998;DHT22;9124;48.144;17.098;2022-10-16T00:30:40;13.00;99.90
17998;DHT22;9124;48.144;17.098;2022-10-16T00:34:16;13.00;99.90
17998;DHT22;9124;48.144;17.098;2022-10-16T00:37:52;12.90;99.90
17998;DHT22;9124;48.144;17.098;2022-10-16T00:41:29;12.90;99.90
17998;DHT22;9124;48.144;17.098;2022-10-16T00:45:07;12.80;99.90
17998;DHT22;9124;48.144;17.098;2022-10-16T00:49:32;12.80;99.90
17998;DHT22;9124;48.144;17.098;2022-10-16T00:52:47;12.80;99.90
17998;DHT22;9124;48.144;17.098;2022-10-16T00:56:24;12.80;99.90
17998;DHT22;9124;48.144;17.098;2022-10-16T01:00:03;12.70;99.90
17998;DHT22;9124;48.144;17.098;2022-10-16T01:03:39;12.70;99.90
17998;DHT22;9124;48.144;17.098;2022-10-16T01:11:37;12.60;99.90
17998;DHT22;9124;48.144;17.098;2022-10-16T01:15:41;12.60;99.90
17998;DHT22;9124;48.144;17.098;2022-10-16T01:20:02;12.60;99.90
17998;DHT22;9124;48.144;17.098;2022-10-16T01:27:36;12.60;99.90
17998;DHT22;9124;48.144;17.098;2022-10-16T01:31:19;12.50;99.90
17998;DHT22;9124;48.144;17.098;2022-10-16T01:35:32;12.50;99.90
17998;DHT22;9124;48.144;17.098;2022-10-16T01:39:02;12.50;99.90
17998;DHT22;9124;48.144;17.098;2022-10-16T01:42:45;12.50;99.90
17998;DHT22;9124;48.144;17.098;2022-10-16T01:46:23;12.50;99.90
17998;DHT22;9124;48.144;17.098;2022-10-16T01:50:00;12.50;99.90
17998;DHT22;9124;48.144;17.098;2022-10-16T01:53:39;12.50;99.90
17998;DHT22;9124;48.144;17.098;2022-10-16T01:57:16;12.60;99.90
17998;DHT22;9124;48.144;17.098;2022-10-16T02:00:56;12.60;99.90
17998;DHT22;9124;48.144;17.098;2022-10-16T02:05:05;12.60;99.90
17998;DHT22;9124;48.144;17.098;2022-10-16T02:08:45;12.60;99.90
17998;DHT22;9124;48.144;17.098;2022-10-16T02:12:31;12.60;99.90
17998;DHT22;9124;48.144;17.098;2022-10-16T02:16:10;12.60;99.90
17998;DHT22;9124;48.144;17.098;2022-10-16T02:19:48;12.60;99.90
17998;DHT22;9124;48.144;17.098;2022-10-16T02:23:55;12.60;99.90
17998;DHT22;9124;48.144;17.098;2022-10-16T02:27:54;12.70;99.90
17998;DHT22;9124;48.144;17.098;2022-10-16T02:31:34;12.80;99.90
17998;DHT22;9124;48.144;17.098;2022-10-16T02:35:12;12.90;99.90
17998;DHT22;9124;48.144;17.098;2022-10-16T02:38:49;13.00;99.90
17998;DHT22;9124;48.144;17.098;2022-10-16T02:42:33;13.00;99.90
17998;DHT22;9124;48.144;17.098;2022-10-16T02:46:10;13.10;99.90
17998;DHT22;9124;48.144;17.098;2022-10-16T02:49:46;13.10;99.90
17998;DHT22;9124;48.144;17.098;2022-10-16T02:53:23;13.20;99.90
17998;DHT22;9124;48.144;17.098;2022-10-16T02:56:59;13.20;99.90
17998;DHT22;9124;48.144;17.098;2022-10-16T03:00:35;13.30;99.90
17998;DHT22;9124;48.144;17.098;2022-10-16T03:04:11;13.30;99.90
17998;DHT22;9124;48.144;17.098;2022-10-16T03:07:48;13.40;99.90
17998;DHT22;9124;48.144;17.098;2022-10-16T03:11:24;13.30;99.90
17998;DHT22;9124;48.144;17.098;2022-10-16T03:15:01;13.30;99.90
17998;DHT22;9124;48.144;17.098;2022-10-16T03:18:37;13.40;99.90
17998;DHT22;9124;48.144;17.098;2022-10-16T03:22:14;13.40;99.90
17998;DHT22;9124;48.144;17.098;2022-10-16T03:25:50;13.40;99.90
17998;DHT22;9124;48.144;17.098;2022-10-16T03:29:26;13.40;99.90
17998;DHT22;9124;48.144;17.098;2022-10-16T03:33:05;13.40;99.90
17998;DHT22;9124;48.144;17.098;2022-10-16T03:36:42;13.40;99.90
17998;DHT22;9124;48.144;17.098;2022-10-16T03:40:18;13.40;99.90
17998;DHT22;9124;48.144;17.098;2022-10-16T03:43:55;13.40;99.90
17998;DHT22;9124;48.144;17.098;2022-10-16T03:47:31;13.40;99.90
17998;DHT22;9124;48.144;17.098;2022-10-16T03:51:09;13.40;99.90
17998;DHT22;9124;48.144;17.098;2022-10-16T03:54:45;13.20;99.90
17998;DHT22;9124;48.144;17.098;2022-10-16T03:58:21;13.10;99.90
17998;DHT22;9124;48.144;17.098;2022-10-16T04:01:57;13.00;99.90
17998;DHT22;9124;48.144;17.098;2022-10-16T04:05:34;12.90;99.90
17998;DHT22;9124;48.144;17.098;2022-10-16T04:09:10;12.90;99.90
17998;DHT22;9124;48.144;17.098;2022-10-16T04:12:47;12.90;99.90
17998;DHT22;9124;48.144;17.098;2022-10-16T04:16:23;12.90;99.90
17998;DHT22;9124;48.144;17.098;2022-10-16T04:19:59;13.00;99.90
17998;DHT22;9124;48.144;17.098;2022-10-16T04:23:36;13.00;99.90
17998;DHT22;9124;48.144;17.098;2022-10-16T04:27:12;13.10;99.90
17998;DHT22;9124;48.144;17.098;2022-10-16T04:30:48;13.00;99.90
17998;DHT22;9124;48.144;17.098;2022-10-16T04:34:24;13.00;99.90
17998;DHT22;9124;48.144;17.098;2022-10-16T04:38:01;13.10;99.90
17998;DHT22;9124;48.144;17.098;2022-10-16T04:41:37;13.10;99.90
17998;DHT22;9124;48.144;17.098;2022-10-16T04:45:13;13.10;99.90
17998;DHT22;9124;48.144;17.098;2022-10-16T04:48:50;13.00;99.90
17998;DHT22;9124;48.144;17.098;2022-10-16T04:52:26;13.00;99.90
17998;DHT22;9124;48.144;17.098;2022-10-16T04:56:02;12.90;99.90
17998;DHT22;9124;48.144;17.098;2022-10-16T04:59:39;12.80;99.90
17998;DHT22;9124;48.144;17.098;2022-10-16T05:03:15;12.70;99.90
17998;DHT22;9124;48.144;17.098;2022-10-16T05:06:51;12.60;99.90
17998;DHT22;9124;48.144;17.098;2022-10-16T05:10:27;12.50;99.90
17998;DHT22;9124;48.144;17.098;2022-10-16T05:14:04;12.50;99.90
17998;DHT22;9124;48.144;17.098;2022-10-16T05:17:40;12.50;99.90
17998;DHT22;9124;48.144;17.098;2022-10-16T05:21:17;12.50;99.90
17998;DHT22;9124;48.144;17.098;2022-10-16T05:24:53;12.50;99.90
17998;DHT22;9124;48.144;17.098;2022-10-16T05:28:30;12.50;99.90
17998;DHT22;9124;48.144;17.098;2022-10-16T05:32:06;12.50;99.90
17998;DHT22;9124;48.144;17.098;2022-10-16T05:35:44;12.50;99.90
17998;DHT22;9124;48.144;17.098;2022-10-16T05:39:20;12.50;99.90
17998;DHT22;9124;48.144;17.098;2022-10-16T05:42:57;12.60;99.90
17998;DHT22;9124;48.144;17.098;2022-10-16T05:46:33;12.60;99.90
17998;DHT22;9124;48.144;17.098;2022-10-16T05:50:10;12.60;99.90
17998;DHT22;9124;48.144;17.098;2022-10-16T05:53:46;12.70;99.90
17998;DHT22;9124;48.144;17.098;2022-10-16T05:57:23;12.70;99.90
17998;DHT22;9124;48.144;17.098;2022-10-16T06:01:07;12.70;99.90
17998;DHT22;9124;48.144;17.098;2022-10-16T06:04:45;12.90;99.90
17998;DHT22;9124;48.144;17.098;2022-10-16T06:08:22;13.00;99.90
17998;DHT22;9124;48.144;17.098;2022-10-16T06:11:59;13.10;99.90
17998;DHT22;9124;48.144;17.098;2022-10-16T06:15:35;13.30;99.90
17998;DHT22;9124;48.144;17.098;2022-10-16T06:19:11;13.70;99.90
17998;DHT22;9124;48.144;17.098;2022-10-16T06:22:48;14.10;99.90
17998;DHT22;9124;48.144;17.098;2022-10-16T06:26:26;14.60;99.90
17998;DHT22;9124;48.144;17.098;2022-10-16T06:30:04;15.10;99.90
17998;DHT22;9124;48.144;17.098;2022-10-16T06:33:40;15.30;99.90
17998;DHT22;9124;48.144;17.098;2022-10-16T06:37:17;15.70;99.90
17998;DHT22;9124;48.144;17.098;2022-10-16T06:40:53;15.90;99.90
17998;DHT22;9124;48.144;17.098;2022-10-16T06:44:30;15.60;99.90
17998;DHT22;9124;48.144;17.098;2022-10-16T06:48:06;15.30;99.90
17998;DHT22;9124;48.144;17.098;2022-10-16T06:51:43;15.00;99.90
17998;DHT22;9124;48.144;17.098;2022-10-16T06:55:19;15.00;99.90
17998;DHT22;9124;48.144;17.098;2022-10-16T06:58:55;15.10;99.90
17998;DHT22;9124;48.144;17.098;2022-10-16T07:02:31;15.00;99.90
17998;DHT22;9124;48.144;17.098;2022-10-16T07:06:10;15.10;99.90
17998;DHT22;9124;48.144;17.098;2022-10-16T07:09:46;15.00;99.90
17998;DHT22;9124;48.144;17.098;2022-10-16T07:13:22;15.00;99.90
17998;DHT22;9124;48.144;17.098;2022-10-16T07:16:59;14.90;99.90
17998;DHT22;9124;48.144;17.098;2022-10-16T07:20:35;14.90;99.90
17998;DHT22;9124;48.144;17.098;2022-10-16T07:24:15;15.10;99.90
17998;DHT22;9124;48.144;17.098;2022-10-16T07:27:51;15.20;99.90
17998;DHT22;9124;48.144;17.098;2022-10-16T07:31:28;15.30;99.90
17998;DHT22;9124;48.144;17.098;2022-10-16T07:35:05;15.30;99.90
17998;DHT22;9124;48.144;17.098;2022-10-16T07:38:41;15.50;99.90
17998;DHT22;9124;48.144;17.098;2022-10-16T07:42:18;15.70;99.90
17998;DHT22;9124;48.144;17.098;2022-10-16T07:45:56;15.80;99.90
17998;DHT22;9124;48.144;17.098;2022-10-16T07:49:33;16.10;99.90
17998;DHT22;9124;48.144;17.098;2022-10-16T07:53:10;16.40;99.90
17998;DHT22;9124;48.144;17.098;2022-10-16T07:56:46;16.90;99.90
17998;DHT22;9124;48.144;17.098;2022-10-16T08:00:23;17.40;99.90
17998;DHT22;9124;48.144;17.098;2022-10-16T08:03:59;18.30;99.90
17998;DHT22;9124;48.144;17.098;2022-10-16T08:07:35;20.30;99.90
17998;DHT22;9124;48.144;17.098;2022-10-16T08:11:12;23.70;99.90
17998;DHT22;9124;48.144;17.098;2022-10-16T08:14:48;26.70;99.90
17998;DHT22;9124;48.144;17.098;2022-10-16T08:18:25;28.80;98.70
17998;DHT22;9124;48.144;17.098;2022-10-16T08:22:01;29.80;89.90
17998;DHT22;9124;48.144;17.098;2022-10-16T08:25:37;30.60;84.90
17998;DHT22;9124;48.144;17.098;2022-10-16T08:29:14;30.80;80.80
17998;DHT22;9124;48.144;17.098;2022-10-16T08:32:51;29.80;75.50
17998;DHT22;9124;48.144;17.098;2022-10-16T08:36:27;30.80;74.30
17998;DHT22;9124;48.144;17.098;2022-10-16T08:40:07;29.70;68.60
17998;DHT22;9124;48.144;17.098;2022-10-16T08:51:55;23.00;69.40
17998;DHT22;9124;48.144;17.098;2022-10-16T08:56:02;21.80;71.20
17998;DHT22;9124;48.144;17.098;2022-10-16T08:59:39;20.80;72.70
17998;DHT22;9124;48.144;17.098;2022-10-16T09:15:31;31.10;68.80
17998;DHT22;9124;48.144;17.098;2022-10-16T09:19:24;32.80;65.70
17998;DHT22;9124;48.144;17.098;2022-10-16T09:26:41;34.30;57.80
17998;DHT22;9124;48.144;17.098;2022-10-16T09:30:20;35.00;56.30
17998;DHT22;9124;48.144;17.098;2022-10-16T09:34:00;35.40;54.30
17998;DHT22;9124;48.144;17.098;2022-10-16T09:37:44;35.30;51.40
17998;DHT22;9124;48.144;17.098;2022-10-16T09:41:22;35.60;51.30
17998;DHT22;9124;48.144;17.098;2022-10-16T09:45:00;35.40;49.10
17998;DHT22;9124;48.144;17.098;2022-10-16T09:52:15;35.50;47.60
17998;DHT22;9124;48.144;17.098;2022-10-16T09:55:53;35.30;45.60
17998;DHT22;9124;48.144;17.098;2022-10-16T09:59:32;35.50;45.10
17998;DHT22;9124;48.144;17.098;2022-10-16T10:03:11;36.00;44.50
17998;DHT22;9124;48.144;17.098;2022-10-16T10:10:30;36.20;42.80
17998;DHT22;9124;48.144;17.098;2022-10-16T10:14:49;36.10;41.90
17998;DHT22;9124;48.144;17.098;2022-10-16T10:18:26;36.30;42.20
17998;DHT22;9124;48.144;17.098;2022-10-16T10:22:38;36.40;41.00
17998;DHT22;9124;48.144;17.098;2022-10-16T10:26:18;36.90;40.50
17998;DHT22;9124;48.144;17.098;2022-10-16T10:30:07;37.20;40.10
17998;DHT22;9124;48.144;17.098;2022-10-16T10:34:18;37.10;39.60
17998;DHT22;9124;48.144;17.098;2022-10-16T10:45:27;35.40;39.20
17998;DHT22;9124;48.144;17.098;2022-10-16T10:57:28;33.00;41.10
17998;DHT22;9124;48.144;17.098;2022-10-16T11:05:35;32.50;41.30
17998;DHT22;9124;48.144;17.098;2022-10-16T11:09:20;31.20;41.10
17998;DHT22;9124;48.144;17.098;2022-10-16T11:13:15;29.10;42.50
17998;DHT22;9124;48.144;17.098;2022-10-16T11:17:07;27.00;44.10
17998;DHT22;9124;48.144;17.098;2022-10-16T11:20:56;24.90;46.10
17998;DHT22;9124;48.144;17.098;2022-10-16T11:24:53;23.50;48.50
17998;DHT22;9124;48.144;17.098;2022-10-16T11:28:53;22.60;49.70
17998;DHT22;9124;48.144;17.098;2022-10-16T11:33:25;22.10;50.80
17998;DHT22;9124;48.144;17.098;2022-10-16T11:40:41;21.40;53.40
17998;DHT22;9124;48.144;17.098;2022-10-16T11:48:39;21.00;54.50
17998;DHT22;9124;48.144;17.098;2022-10-16T11:56:22;20.80;55.90
17998;DHT22;9124;48.144;17.098;2022-10-16T12:00:02;20.90;55.80
17998;DHT22;9124;48.144;17.098;2022-10-16T12:07:38;20.80;56.70
17998;DHT22;9124;48.144;17.098;2022-10-16T12:11:36;20.80;57.00
17998;DHT22;9124;48.144;17.098;2022-10-16T12:15:34;20.80;57.40
17998;DHT22;9124;48.144;17.098;2022-10-16T12:19:15;20.70;58.30
17998;DHT22;9124;48.144;17.098;2022-10-16T12:23:06;20.70;58.70
17998;DHT22;9124;48.144;17.098;2022-10-16T12:26:52;20.70;59.20
17998;DHT22;9124;48.144;17.098;2022-10-16T12:30:32;20.60;59.80
17998;DHT22;9124;48.144;17.098;2022-10-16T12:38:36;20.50;61.10
17998;DHT22;9124;48.144;17.098;2022-10-16T12:49:50;20.50;61.50
17998;DHT22;9124;48.144;17.098;2022-10-16T12:53:27;20.50;61.70
17998;DHT22;9124;48.144;17.098;2022-10-16T12:57:25;20.50;62.60
17998;DHT22;9124;48.144;17.098;2022-10-16T13:05:35;20.50;63.20
17998;DHT22;9124;48.144;17.098;2022-10-16T13:29:42;20.50;65.20
17998;DHT22;9124;48.144;17.098;2022-10-16T13:33:35;20.50;64.50
17998;DHT22;9124;48.144;17.098;2022-10-16T13:37:20;20.60;64.80
17998;DHT22;9124;48.144;17.098;2022-10-16T13:44:49;20.80;65.00
17998;DHT22;9124;48.144;17.098;2022-10-16T13:48:27;20.90;65.00
17998;DHT22;9124;48.144;17.098;2022-10-16T13:52:03;20.90;64.90
17998;DHT22;9124;48.144;17.098;2022-10-16T13:55:40;21.00;64.80
17998;DHT22;9124;48.144;17.098;2022-10-16T14:03:04;21.20;64.90
17998;DHT22;9124;48.144;17.098;2022-10-16T14:06:43;21.30;64.90
17998;DHT22;9124;48.144;17.098;2022-10-16T14:10:28;21.40;65.00
17998;DHT22;9124;48.144;17.098;2022-10-16T14:14:09;21.40;65.00
17998;DHT22;9124;48.144;17.098;2022-10-16T14:17:49;21.40;64.90
17998;DHT22;9124;48.144;17.098;2022-10-16T14:21:27;21.30;65.10
17998;DHT22;9124;48.144;17.098;2022-10-16T14:29:14;21.40;65.50
17998;DHT22;9124;48.144;17.098;2022-10-16T14:33:21;21.50;65.30
17998;DHT22;9124;48.144;17.098;2022-10-16T14:37:08;21.60;65.20
17998;DHT22;9124;48.144;17.098;2022-10-16T14:40:47;21.70;65.10
17998;DHT22;9124;48.144;17.098;2022-10-16T14:44:33;21.70;65.00
17998;DHT22;9124;48.144;17.098;2022-10-16T14:48:17;21.70;65.10
17998;DHT22;9124;48.144;17.098;2022-10-16T14:51:55;21.70;65.10
17998;DHT22;9124;48.144;17.098;2022-10-16T14:55:31;21.70;65.30
17998;DHT22;9124;48.144;17.098;2022-10-16T14:59:25;21.60;65.30
17998;DHT22;9124;48.144;17.098;2022-10-16T15:03:03;21.60;65.40
17998;DHT22;9124;48.144;17.098;2022-10-16T15:06:40;21.50;66.10
17998;DHT22;9124;48.144;17.098;2022-10-16T15:10:17;21.50;65.70
17998;DHT22;9124;48.144;17.098;2022-10-16T15:13:54;21.50;65.80
17998;DHT22;9124;48.144;17.098;2022-10-16T15:17:31;21.40;65.90
17998;DHT22;9124;48.144;17.098;2022-10-16T15:21:08;21.30;65.90
17998;DHT22;9124;48.144;17.098;2022-10-16T15:24:45;21.30;66.20
17998;DHT22;9124;48.144;17.098;2022-10-16T15:28:23;21.20;66.30
17998;DHT22;9124;48.144;17.098;2022-10-16T15:32:00;21.10;66.50
17998;DHT22;9124;48.144;17.098;2022-10-16T15:35:36;21.00;66.70
17998;DHT22;9124;48.144;17.098;2022-10-16T15:39:18;20.90;66.90
17998;DHT22;9124;48.144;17.098;2022-10-16T15:42:55;20.80;67.20
17998;DHT22;9124;48.144;17.098;2022-10-16T15:46:31;20.70;67.30
17998;DHT22;9124;48.144;17.098;2022-10-16T15:50:12;20.60;67.60
17998;DHT22;9124;48.144;17.098;2022-10-16T15:53:48;20.50;67.90
17998;DHT22;9124;48.144;17.098;2022-10-16T15:57:28;20.40;68.20
17998;DHT22;9124;48.144;17.098;2022-10-16T16:01:05;20.20;68.50
17998;DHT22;9124;48.144;17.098;2022-10-16T16:04:42;20.00;68.60
17998;DHT22;9124;48.144;17.098;2022-10-16T16:08:18;19.90;68.80
17998;DHT22;9124;48.144;17.098;2022-10-16T16:11:55;19.70;69.00
17998;DHT22;9124;48.144;17.098;2022-10-16T16:15:31;19.50;69.20
17998;DHT22;9124;48.144;17.098;2022-10-16T16:19:08;19.30;69.60
17998;DHT22;9124;48.144;17.098;2022-10-16T16:22:45;19.20;69.90
17998;DHT22;9124;48.144;17.098;2022-10-16T16:26:28;19.10;70.30
17998;DHT22;9124;48.144;17.098;2022-10-16T16:30:10;19.10;70.60
17998;DHT22;9124;48.144;17.098;2022-10-16T16:33:47;19.00;70.80
17998;DHT22;9124;48.144;17.098;2022-10-16T16:37:23;19.00;71.20
17998;DHT22;9124;48.144;17.098;2022-10-16T16:41:10;18.90;71.20
17998;DHT22;9124;48.144;17.098;2022-10-16T16:44:50;18.90;71.70
17998;DHT22;9124;48.144;17.098;2022-10-16T16:48:26;18.80;72.10
17998;DHT22;9124;48.144;17.098;2022-10-16T16:52:03;18.80;72.20
17998;DHT22;9124;48.144;17.098;2022-10-16T16:55:39;18.80;72.20
17998;DHT22;9124;48.144;17.098;2022-10-16T16:59:18;18.70;72.20
17998;DHT22;9124;48.144;17.098;2022-10-16T17:02:55;18.60;72.40
17998;DHT22;9124;48.144;17.098;2022-10-16T17:06:32;18.60;72.60
17998;DHT22;9124;48.144;17.098;2022-10-16T17:10:09;18.60;72.90
17998;DHT22;9124;48.144;17.098;2022-10-16T17:13:46;18.50;73.00
17998;DHT22;9124;48.144;17.098;2022-10-16T17:17:22;18.40;73.20
17998;DHT22;9124;48.144;17.098;2022-10-16T17:21:03;18.40;73.40
17998;DHT22;9124;48.144;17.098;2022-10-16T17:24:40;18.30;73.80
17998;DHT22;9124;48.144;17.098;2022-10-16T17:28:16;18.30;73.90
17998;DHT22;9124;48.144;17.098;2022-10-16T17:31:55;18.20;74.00
17998;DHT22;9124;48.144;17.098;2022-10-16T17:35:45;18.10;74.30
17998;DHT22;9124;48.144;17.098;2022-10-16T17:39:22;18.10;74.70
17998;DHT22;9124;48.144;17.098;2022-10-16T17:42:58;18.00;75.10
17998;DHT22;9124;48.144;17.098;2022-10-16T17:46:35;17.90;74.90
17998;DHT22;9124;48.144;17.098;2022-10-16T17:50:11;17.90;75.30
17998;DHT22;9124;48.144;17.098;2022-10-16T17:53:49;17.90;75.60
17998;DHT22;9124;48.144;17.098;2022-10-16T17:57:25;17.90;75.80
17998;DHT22;9124;48.144;17.098;2022-10-16T18:01:14;17.90;75.90
17998;DHT22;9124;48.144;17.098;2022-10-16T18:04:51;17.80;76.10
17998;DHT22;9124;48.144;17.098;2022-10-16T18:08:27;17.70;76.20
17998;DHT22;9124;48.144;17.098;2022-10-16T18:12:04;17.70;76.40
17998;DHT22;9124;48.144;17.098;2022-10-16T18:15:41;17.50;76.50
17998;DHT22;9124;48.144;17.098;2022-10-16T18:19:18;17.50;76.80
17998;DHT22;9124;48.144;17.098;2022-10-16T18:22:54;17.40;77.00
17998;DHT22;9124;48.144;17.098;2022-10-16T18:26:31;17.30;77.50
17998;DHT22;9124;48.144;17.098;2022-10-16T18:30:08;17.30;77.50
17998;DHT22;9124;48.144;17.098;2022-10-16T18:33:45;17.30;77.60
17998;DHT22;9124;48.144;17.098;2022-10-16T18:37:26;17.20;78.50
17998;DHT22;9124;48.144;17.098;2022-10-16T18:41:03;17.10;78.10
17998;DHT22;9124;48.144;17.098;2022-10-16T18:44:41;16.90;78.30
17998;DHT22;9124;48.144;17.098;2022-10-16T18:48:17;16.80;78.60
17998;DHT22;9124;48.144;17.098;2022-10-16T18:51:53;16.80;78.90
17998;DHT22;9124;48.144;17.098;2022-10-16T18:55:31;16.60;79.10
17998;DHT22;9124;48.144;17.098;2022-10-16T18:59:09;16.50;79.30
17998;DHT22;9124;48.144;17.098;2022-10-16T19:02:45;16.40;79.60
17998;DHT22;9124;48.144;17.098;2022-10-16T19:06:22;16.30;79.80
17998;DHT22;9124;48.144;17.098;2022-10-16T19:09:58;16.20;80.00
17998;DHT22;9124;48.144;17.098;2022-10-16T19:13:35;16.10;80.40
17998;DHT22;9124;48.144;17.098;2022-10-16T19:17:11;16.00;80.60
17998;DHT22;9124;48.144;17.098;2022-10-16T19:20:48;15.90;80.90
17998;DHT22;9124;48.144;17.098;2022-10-16T19:24:24;15.80;81.10
17998;DHT22;9124;48.144;17.098;2022-10-16T19:28:00;15.70;81.40
17998;DHT22;9124;48.144;17.098;2022-10-16T19:31:42;15.60;81.60
17998;DHT22;9124;48.144;17.098;2022-10-16T19:35:18;15.60;82.00
17998;DHT22;9124;48.144;17.098;2022-10-16T19:39:14;15.50;82.20
17998;DHT22;9124;48.144;17.098;2022-10-16T19:42:52;15.50;82.70
17998;DHT22;9124;48.144;17.098;2022-10-16T19:46:29;15.40;82.80
17998;DHT22;9124;48.144;17.098;2022-10-16T19:50:06;15.40;83.10
17998;DHT22;9124;48.144;17.098;2022-10-16T19:53:45;15.30;83.40
17998;DHT22;9124;48.144;17.098;2022-10-16T19:57:23;15.30;83.60
17998;DHT22;9124;48.144;17.098;2022-10-16T20:00:59;15.20;84.00
17998;DHT22;9124;48.144;17.098;2022-10-16T20:04:35;15.20;84.20
17998;DHT22;9124;48.144;17.098;2022-10-16T20:08:12;15.10;84.50
17998;DHT22;9124;48.144;17.098;2022-10-16T20:11:48;15.10;84.70
17998;DHT22;9124;48.144;17.098;2022-10-16T20:15:24;15.10;85.00
17998;DHT22;9124;48.144;17.098;2022-10-16T20:19:02;15.00;85.20
17998;DHT22;9124;48.144;17.098;2022-10-16T20:22:39;15.00;85.50
17998;DHT22;9124;48.144;17.098;2022-10-16T20:26:16;15.00;85.60
17998;DHT22;9124;48.144;17.098;2022-10-16T20:29:54;14.90;85.80
17998;DHT22;9124;48.144;17.098;2022-10-16T20:33:30;14.90;86.10
17998;DHT22;9124;48.144;17.098;2022-10-16T20:37:06;14.80;86.30
17998;DHT22;9124;48.144;17.098;2022-10-16T20:40:45;14.80;86.60
17998;DHT22;9124;48.144;17.098;2022-10-16T20:44:21;14.80;86.80
17998;DHT22;9124;48.144;17.098;2022-10-16T20:47:57;14.80;87.10
17998;DHT22;9124;48.144;17.098;2022-10-16T20:51:34;14.70;87.10
17998;DHT22;9124;48.144;17.098;2022-10-16T20:55:10;14.70;87.50
17998;DHT22;9124;48.144;17.098;2022-10-16T20:58:47;14.70;87.60
17998;DHT22;9124;48.144;17.098;2022-10-16T21:02:23;14.60;87.80
17998;DHT22;9124;48.144;17.098;2022-10-16T21:06:04;14.60;88.00
17998;DHT22;9124;48.144;17.098;2022-10-16T21:09:40;14.50;88.30
17998;DHT22;9124;48.144;17.098;2022-10-16T21:13:17;14.50;88.40
17998;DHT22;9124;48.144;17.098;2022-10-16T21:16:53;14.50;88.60
17998;DHT22;9124;48.144;17.098;2022-10-16T21:20:30;14.40;88.70
17998;DHT22;9124;48.144;17.098;2022-10-16T21:24:06;14.40;89.00
17998;DHT22;9124;48.144;17.098;2022-10-16T21:27:43;14.40;89.20
17998;DHT22;9124;48.144;17.098;2022-10-16T21:31:20;14.30;89.30
17998;DHT22;9124;48.144;17.098;2022-10-16T21:34:57;14.30;89.50
17998;DHT22;9124;48.144;17.098;2022-10-16T21:38:33;14.30;89.80
17998;DHT22;9124;48.144;17.098;2022-10-16T21:42:10;14.30;90.00
17998;DHT22;9124;48.144;17.098;2022-10-16T21:45:46;14.20;90.00
17998;DHT22;9124;48.144;17.098;2022-10-16T21:49:22;14.20;90.20
17998;DHT22;9124;48.144;17.098;2022-10-16T21:52:58;14.20;90.30
17998;DHT22;9124;48.144;17.098;2022-10-16T21:56:35;14.10;90.30
17998;DHT22;9124;48.144;17.098;2022-10-16T22:00:11;14.10;90.40
17998;DHT22;9124;48.144;17.098;2022-10-16T22:03:48;14.00;90.50
17998;DHT22;9124;48.144;17.098;2022-10-16T22:07:25;14.00;90.60
17998;DHT22;9124;48.144;17.098;2022-10-16T22:11:10;14.00;90.60
17998;DHT22;9124;48.144;17.098;2022-10-16T22:14:46;14.00;90.70
17998;DHT22;9124;48.144;17.098;2022-10-16T22:18:23;13.90;90.80
17998;DHT22;9124;48.144;17.098;2022-10-16T22:21:59;13.90;90.90
17998;DHT22;9124;48.144;17.098;2022-10-16T22:25:36;13.90;91.00
17998;DHT22;9124;48.144;17.098;2022-10-16T22:29:13;13.80;91.10
17998;DHT22;9124;48.144;17.098;2022-10-16T22:32:50;13.80;91.20
17998;DHT22;9124;48.144;17.098;2022-10-16T22:36:27;13.70;91.20
17998;DHT22;9124;48.144;17.098;2022-10-16T22:40:04;13.70;91.30
17998;DHT22;9124;48.144;17.098;2022-10-16T22:43:43;13.70;91.40
17998;DHT22;9124;48.144;17.098;2022-10-16T22:47:19;13.70;91.50
17998;DHT22;9124;48.144;17.098;2022-10-16T22:50:56;13.60;91.50
17998;DHT22;9124;48.144;17.098;2022-10-16T22:54:32;13.60;91.60
17998;DHT22;9124;48.144;17.098;2022-10-16T22:58:09;13.50;91.70
17998;DHT22;9124;48.144;17.098;2022-10-16T23:01:45;13.50;91.80
17998;DHT22;9124;48.144;17.098;2022-10-16T23:05:21;13.50;91.90
17998;DHT22;9124;48.144;17.098;2022-10-16T23:08:59;13.40;92.00
17998;DHT22;9124;48.144;17.098;2022-10-16T23:12:36;13.40;92.10
17998;DHT22;9124;48.144;17.098;2022-10-16T23:16:15;13.40;92.10
17998;DHT22;9124;48.144;17.098;2022-10-16T23:19:51;13.40;92.20
17998;DHT22;9124;48.144;17.098;2022-10-16T23:23:28;13.40;92.40
17998;DHT22;9124;48.144;17.098;2022-10-16T23:27:04;13.40;92.40
17998;DHT22;9124;48.144;17.098;2022-10-16T23:30:41;13.30;92.40
17998;DHT22;9124;48.144;17.098;2022-10-16T23:34:17;13.30;92.50
17998;DHT22;9124;48.144;17.098;2022-10-16T23:37:53;13.30;92.60
17998;DHT22;9124;48.144;17.098;2022-10-16T23:41:29;13.30;92.80
17998;DHT22;9124;48.144;17.098;2022-10-16T23:45:06;13.30;92.80
17998;DHT22;9124;48.144;17.098;2022-10-16T23:48:42;13.20;92.90
17998;DHT22;9124;48.144;17.098;2022-10-16T23:52:19;13.20;93.00
17998;DHT22;9124;48.144;17.098;2022-10-16T23:55:55;13.20;93.00
17998;DHT22;9124;48.144;17.098;2022-10-16T23:59:32;13.10;93.10
